sensor_id;sensor_type;location;lat;lon;timestamp;P1;durP1;ratioP1;P2;durP2;ratioP2
8007;SDS011;4049;49.468;11.200;2023-05-10T00:00:29;4.73;;;3.53;;
8007;SDS011;4049;49.468;11.200;2023-05-10T00:02:56;5.20;;;3.30;;
8007;SDS011;4049;49.468;11.200;2023-05-10T00:05:23;3.40;;;3.10;;
8007;SDS011;4049;49.468;11.200;2023-05-10T00:07:50;4.53;;;3.70;;
8007;SDS011;4049;49.468;11.200;2023-05-10T00:10:18;6.53;;;4.00;;
8007;SDS011;4049;49.468;11.200;2023-05-10T00:12:45;6.50;;;3.93;;
8007;SDS011;4049;49.468;11.200;2023-05-10T00:15:11;6.27;;;3.83;;
8007;SDS011;4049;49.468;11.200;2023-05-10T00:17:38;6.20;;;4.00;;
8007;SDS011;4049;49.468;11.200;2023-05-10T00:20:05;8.93;;;4.50;;
8007;SDS011;4049;49.468;11.200;2023-05-10T00:22:33;4.43;;;3.70;;
8007;SDS011;4049;49.468;11.200;2023-05-10T00:24:59;5.67;;;4.70;;
8007;SDS011;4049;49.468;11.200;2023-05-10T00:27:28;6.43;;;4.67;;
8007;SDS011;4049;49.468;11.200;2023-05-10T00:29:54;6.67;;;4.80;;
8007;SDS011;4049;49.468;11.200;2023-05-10T00:32:21;5.57;;;4.40;;
8007;SDS011;4049;49.468;11.200;2023-05-10T00:34:48;4.97;;;4.20;;
8007;SDS011;4049;49.468;11.200;2023-05-10T00:37:15;6.20;;;4.60;;
8007;SDS011;4049;49.468;11.200;2023-05-10T00:39:42;5.47;;;4.77;;
8007;SDS011;4049;49.468;11.200;2023-05-10T00:42:09;7.17;;;4.43;;
8007;SDS011;4049;49.468;11.200;2023-05-10T00:44:37;6.17;;;4.67;;
8007;SDS011;4049;49.468;11.200;2023-05-10T00:47:04;7.50;;;5.33;;
8007;SDS011;4049;49.468;11.200;2023-05-10T00:49:31;7.10;;;5.53;;
8007;SDS011;4049;49.468;11.200;2023-05-10T00:51:58;7.37;;;4.90;;
8007;SDS011;4049;49.468;11.200;2023-05-10T00:54:26;8.27;;;5.00;;
8007;SDS011;4049;49.468;11.200;2023-05-10T00:56:53;6.40;;;4.90;;
8007;SDS011;4049;49.468;11.200;2023-05-10T00:59:22;7.67;;;5.20;;
8007;SDS011;4049;49.468;11.200;2023-05-10T01:01:50;7.17;;;5.00;;
8007;SDS011;4049;49.468;11.200;2023-05-10T01:04:17;6.97;;;5.23;;
8007;SDS011;4049;49.468;11.200;2023-05-10T01:06:45;6.50;;;4.90;;
8007;SDS011;4049;49.468;11.200;2023-05-10T01:09:11;6.97;;;5.00;;
8007;SDS011;4049;49.468;11.200;2023-05-10T01:11:38;5.87;;;4.83;;
8007;SDS011;4049;49.468;11.200;2023-05-10T01:14:06;6.53;;;5.13;;
8007;SDS011;4049;49.468;11.200;2023-05-10T01:16:39;6.93;;;4.97;;
8007;SDS011;4049;49.468;11.200;2023-05-10T01:19:11;6.87;;;5.03;;
8007;SDS011;4049;49.468;11.200;2023-05-10T01:21:43;7.83;;;5.37;;
8007;SDS011;4049;49.468;11.200;2023-05-10T01:24:25;8.27;;;5.50;;
8007;SDS011;4049;49.468;11.200;2023-05-10T01:27:20;7.87;;;5.93;;
8007;SDS011;4049;49.468;11.200;2023-05-10T01:33:19;8.57;;;5.23;;
8007;SDS011;4049;49.468;11.200;2023-05-10T01:35:51;7.43;;;5.77;;
8007;SDS011;4049;49.468;11.200;2023-05-10T01:38:22;7.63;;;5.30;;
8007;SDS011;4049;49.468;11.200;2023-05-10T01:40:59;7.33;;;5.30;;
8007;SDS011;4049;49.468;11.200;2023-05-10T01:43:36;8.33;;;5.80;;
8007;SDS011;4049;49.468;11.200;2023-05-10T01:46:09;7.57;;;5.73;;
8007;SDS011;4049;49.468;11.200;2023-05-10T01:48:44;7.10;;;5.40;;
8007;SDS011;4049;49.468;11.200;2023-05-10T01:51:14;7.50;;;5.77;;
8007;SDS011;4049;49.468;11.200;2023-05-10T01:53:51;8.33;;;5.50;;
8007;SDS011;4049;49.468;11.200;2023-05-10T01:56:24;9.20;;;6.20;;
8007;SDS011;4049;49.468;11.200;2023-05-10T01:58:54;7.83;;;6.10;;
8007;SDS011;4049;49.468;11.200;2023-05-10T02:01:22;11.97;;;6.13;;
8007;SDS011;4049;49.468;11.200;2023-05-10T02:03:52;8.70;;;6.40;;
8007;SDS011;4049;49.468;11.200;2023-05-10T02:06:21;9.03;;;6.50;;
8007;SDS011;4049;49.468;11.200;2023-05-10T02:08:49;11.80;;;6.07;;
8007;SDS011;4049;49.468;11.200;2023-05-10T02:11:17;9.53;;;6.20;;
8007;SDS011;4049;49.468;11.200;2023-05-10T02:13:47;8.87;;;6.30;;
8007;SDS011;4049;49.468;11.200;2023-05-10T02:16:15;9.30;;;6.07;;
8007;SDS011;4049;49.468;11.200;2023-05-10T02:18:43;10.67;;;6.10;;
8007;SDS011;4049;49.468;11.200;2023-05-10T02:21:12;8.50;;;6.00;;
8007;SDS011;4049;49.468;11.200;2023-05-10T02:23:40;9.50;;;6.40;;
8007;SDS011;4049;49.468;11.200;2023-05-10T02:26:08;8.70;;;5.63;;
8007;SDS011;4049;49.468;11.200;2023-05-10T02:28:36;9.13;;;6.13;;
8007;SDS011;4049;49.468;11.200;2023-05-10T02:31:05;8.77;;;5.63;;
8007;SDS011;4049;49.468;11.200;2023-05-10T02:33:34;8.60;;;5.80;;
8007;SDS011;4049;49.468;11.200;2023-05-10T02:36:02;11.30;;;6.17;;
8007;SDS011;4049;49.468;11.200;2023-05-10T02:38:31;7.60;;;5.60;;
8007;SDS011;4049;49.468;11.200;2023-05-10T02:41:00;7.93;;;5.70;;
8007;SDS011;4049;49.468;11.200;2023-05-10T02:43:28;8.80;;;6.00;;
8007;SDS011;4049;49.468;11.200;2023-05-10T02:45:57;8.83;;;5.93;;
8007;SDS011;4049;49.468;11.200;2023-05-10T02:48:23;10.13;;;6.47;;
8007;SDS011;4049;49.468;11.200;2023-05-10T02:50:52;13.23;;;7.47;;
8007;SDS011;4049;49.468;11.200;2023-05-10T02:53:22;8.60;;;6.40;;
8007;SDS011;4049;49.468;11.200;2023-05-10T02:55:58;11.20;;;6.60;;
8007;SDS011;4049;49.468;11.200;2023-05-10T02:58:32;12.17;;;6.87;;
8007;SDS011;4049;49.468;11.200;2023-05-10T03:00:59;10.50;;;6.57;;
8007;SDS011;4049;49.468;11.200;2023-05-10T03:03:26;11.27;;;6.70;;
8007;SDS011;4049;49.468;11.200;2023-05-10T03:05:53;9.00;;;6.47;;
8007;SDS011;4049;49.468;11.200;2023-05-10T03:08:20;13.07;;;7.10;;
8007;SDS011;4049;49.468;11.200;2023-05-10T03:10:51;8.70;;;6.70;;
8007;SDS011;4049;49.468;11.200;2023-05-10T03:13:31;12.03;;;6.60;;
8007;SDS011;4049;49.468;11.200;2023-05-10T03:16:04;12.30;;;6.73;;
8007;SDS011;4049;49.468;11.200;2023-05-10T03:18:37;7.67;;;5.83;;
8007;SDS011;4049;49.468;11.200;2023-05-10T03:21:10;8.20;;;6.17;;
8007;SDS011;4049;49.468;11.200;2023-05-10T03:23:40;11.27;;;6.17;;
8007;SDS011;4049;49.468;11.200;2023-05-10T03:26:09;8.97;;;5.70;;
8007;SDS011;4049;49.468;11.200;2023-05-10T03:28:40;8.90;;;6.40;;
8007;SDS011;4049;49.468;11.200;2023-05-10T03:31:08;8.97;;;6.07;;
8007;SDS011;4049;49.468;11.200;2023-05-10T03:33:35;8.87;;;6.40;;
8007;SDS011;4049;49.468;11.200;2023-05-10T03:36:11;8.53;;;6.00;;
8007;SDS011;4049;49.468;11.200;2023-05-10T03:38:38;8.33;;;5.20;;
8007;SDS011;4049;49.468;11.200;2023-05-10T03:41:05;9.60;;;4.40;;
8007;SDS011;4049;49.468;11.200;2023-05-10T03:43:32;3.83;;;3.17;;
8007;SDS011;4049;49.468;11.200;2023-05-10T03:46:02;3.97;;;3.10;;
8007;SDS011;4049;49.468;11.200;2023-05-10T03:48:29;4.43;;;3.07;;
8007;SDS011;4049;49.468;11.200;2023-05-10T03:50:56;3.00;;;2.43;;
8007;SDS011;4049;49.468;11.200;2023-05-10T03:53:23;2.00;;;1.80;;
8007;SDS011;4049;49.468;11.200;2023-05-10T03:55:49;3.23;;;2.10;;
8007;SDS011;4049;49.468;11.200;2023-05-10T03:58:16;2.53;;;1.83;;
8007;SDS011;4049;49.468;11.200;2023-05-10T04:00:43;2.07;;;1.63;;
8007;SDS011;4049;49.468;11.200;2023-05-10T04:03:12;3.20;;;1.60;;
8007;SDS011;4049;49.468;11.200;2023-05-10T04:05:39;2.20;;;1.60;;
8007;SDS011;4049;49.468;11.200;2023-05-10T04:08:06;2.63;;;1.60;;
8007;SDS011;4049;49.468;11.200;2023-05-10T04:10:33;1.90;;;1.47;;
8007;SDS011;4049;49.468;11.200;2023-05-10T04:12:59;1.70;;;1.50;;
8007;SDS011;4049;49.468;11.200;2023-05-10T04:15:26;2.27;;;2.00;;
8007;SDS011;4049;49.468;11.200;2023-05-10T04:17:53;1.30;;;1.20;;
8007;SDS011;4049;49.468;11.200;2023-05-10T04:20:21;1.87;;;1.40;;
8007;SDS011;4049;49.468;11.200;2023-05-10T04:22:48;2.37;;;1.20;;
8007;SDS011;4049;49.468;11.200;2023-05-10T04:25:15;4.07;;;1.20;;
8007;SDS011;4049;49.468;11.200;2023-05-10T04:27:42;1.90;;;1.27;;
8007;SDS011;4049;49.468;11.200;2023-05-10T04:30:09;3.60;;;1.30;;
8007;SDS011;4049;49.468;11.200;2023-05-10T04:32:36;2.10;;;1.23;;
8007;SDS011;4049;49.468;11.200;2023-05-10T04:35:03;2.77;;;1.10;;
8007;SDS011;4049;49.468;11.200;2023-05-10T04:37:32;1.27;;;1.07;;
8007;SDS011;4049;49.468;11.200;2023-05-10T04:39:58;2.00;;;1.33;;
8007;SDS011;4049;49.468;11.200;2023-05-10T04:42:26;1.03;;;1.00;;
8007;SDS011;4049;49.468;11.200;2023-05-10T04:44:52;2.90;;;1.00;;
8007;SDS011;4049;49.468;11.200;2023-05-10T04:47:19;1.30;;;1.00;;
8007;SDS011;4049;49.468;11.200;2023-05-10T04:49:46;1.77;;;1.17;;
8007;SDS011;4049;49.468;11.200;2023-05-10T04:52:13;1.23;;;1.00;;
8007;SDS011;4049;49.468;11.200;2023-05-10T04:54:43;1.03;;;0.83;;
8007;SDS011;4049;49.468;11.200;2023-05-10T04:57:10;1.10;;;1.00;;
8007;SDS011;4049;49.468;11.200;2023-05-10T04:59:37;0.83;;;0.83;;
8007;SDS011;4049;49.468;11.200;2023-05-10T05:02:04;1.30;;;1.00;;
8007;SDS011;4049;49.468;11.200;2023-05-10T05:04:31;2.00;;;1.10;;
8007;SDS011;4049;49.468;11.200;2023-05-10T05:06:58;1.07;;;0.97;;
8007;SDS011;4049;49.468;11.200;2023-05-10T05:09:25;1.03;;;0.90;;
8007;SDS011;4049;49.468;11.200;2023-05-10T05:11:53;1.00;;;0.80;;
8007;SDS011;4049;49.468;11.200;2023-05-10T05:14:20;0.77;;;0.77;;
8007;SDS011;4049;49.468;11.200;2023-05-10T05:16:47;1.03;;;1.03;;
8007;SDS011;4049;49.468;11.200;2023-05-10T05:19:14;0.80;;;0.80;;
8007;SDS011;4049;49.468;11.200;2023-05-10T05:21:41;1.13;;;1.00;;
8007;SDS011;4049;49.468;11.200;2023-05-10T05:24:08;1.47;;;1.10;;
8007;SDS011;4049;49.468;11.200;2023-05-10T05:26:36;2.20;;;1.10;;
8007;SDS011;4049;49.468;11.200;2023-05-10T05:29:04;1.93;;;1.17;;
8007;SDS011;4049;49.468;11.200;2023-05-10T05:31:31;0.90;;;0.90;;
8007;SDS011;4049;49.468;11.200;2023-05-10T05:33:57;1.83;;;0.90;;
8007;SDS011;4049;49.468;11.200;2023-05-10T05:36:24;1.87;;;1.30;;
8007;SDS011;4049;49.468;11.200;2023-05-10T05:38:51;0.73;;;0.73;;
8007;SDS011;4049;49.468;11.200;2023-05-10T05:41:18;1.10;;;1.00;;
8007;SDS011;4049;49.468;11.200;2023-05-10T05:43:45;1.53;;;1.10;;
8007;SDS011;4049;49.468;11.200;2023-05-10T05:46:13;0.90;;;0.90;;
8007;SDS011;4049;49.468;11.200;2023-05-10T05:48:40;2.10;;;1.07;;
8007;SDS011;4049;49.468;11.200;2023-05-10T05:51:06;1.40;;;1.00;;
8007;SDS011;4049;49.468;11.200;2023-05-10T05:53:33;0.90;;;0.90;;
8007;SDS011;4049;49.468;11.200;2023-05-10T05:56:00;1.20;;;1.10;;
8007;SDS011;4049;49.468;11.200;2023-05-10T05:58:28;1.30;;;1.00;;
8007;SDS011;4049;49.468;11.200;2023-05-10T06:00:55;1.30;;;1.10;;
8007;SDS011;4049;49.468;11.200;2023-05-10T06:03:23;1.60;;;1.03;;
8007;SDS011;4049;49.468;11.200;2023-05-10T06:05:50;1.17;;;1.07;;
8007;SDS011;4049;49.468;11.200;2023-05-10T06:08:17;1.20;;;1.10;;
8007;SDS011;4049;49.468;11.200;2023-05-10T06:10:44;1.10;;;1.10;;
8007;SDS011;4049;49.468;11.200;2023-05-10T06:13:10;1.30;;;1.20;;
8007;SDS011;4049;49.468;11.200;2023-05-10T06:15:37;1.30;;;1.20;;
8007;SDS011;4049;49.468;11.200;2023-05-10T06:18:04;1.23;;;1.13;;
8007;SDS011;4049;49.468;11.200;2023-05-10T06:20:32;2.93;;;1.43;;
8007;SDS011;4049;49.468;11.200;2023-05-10T06:22:59;1.27;;;1.10;;
8007;SDS011;4049;49.468;11.200;2023-05-10T06:25:26;1.40;;;1.30;;
8007;SDS011;4049;49.468;11.200;2023-05-10T06:27:53;1.50;;;1.40;;
8007;SDS011;4049;49.468;11.200;2023-05-10T06:30:23;2.47;;;1.30;;
8007;SDS011;4049;49.468;11.200;2023-05-10T06:32:53;1.77;;;1.50;;
8007;SDS011;4049;49.468;11.200;2023-05-10T06:35:20;1.67;;;1.40;;
8007;SDS011;4049;49.468;11.200;2023-05-10T06:37:49;1.70;;;1.50;;
8007;SDS011;4049;49.468;11.200;2023-05-10T06:40:16;1.17;;;1.07;;
8007;SDS011;4049;49.468;11.200;2023-05-10T06:42:43;2.70;;;1.50;;
8007;SDS011;4049;49.468;11.200;2023-05-10T06:45:11;2.13;;;1.40;;
8007;SDS011;4049;49.468;11.200;2023-05-10T06:47:39;2.00;;;1.40;;
8007;SDS011;4049;49.468;11.200;2023-05-10T06:50:06;1.87;;;1.47;;
8007;SDS011;4049;49.468;11.200;2023-05-10T06:52:34;2.13;;;1.40;;
8007;SDS011;4049;49.468;11.200;2023-05-10T06:55:02;2.53;;;1.27;;
8007;SDS011;4049;49.468;11.200;2023-05-10T06:57:30;2.67;;;1.53;;
8007;SDS011;4049;49.468;11.200;2023-05-10T06:59:56;1.67;;;1.40;;
8007;SDS011;4049;49.468;11.200;2023-05-10T07:02:23;1.40;;;1.30;;
8007;SDS011;4049;49.468;11.200;2023-05-10T07:04:50;2.40;;;1.37;;
8007;SDS011;4049;49.468;11.200;2023-05-10T07:07:17;2.20;;;1.60;;
8007;SDS011;4049;49.468;11.200;2023-05-10T07:09:44;2.00;;;1.30;;
8007;SDS011;4049;49.468;11.200;2023-05-10T07:12:12;1.50;;;1.40;;
8007;SDS011;4049;49.468;11.200;2023-05-10T07:14:39;1.40;;;1.30;;
8007;SDS011;4049;49.468;11.200;2023-05-10T07:17:06;2.30;;;1.43;;
8007;SDS011;4049;49.468;11.200;2023-05-10T07:19:33;1.80;;;1.50;;
8007;SDS011;4049;49.468;11.200;2023-05-10T07:22:00;3.83;;;1.40;;
8007;SDS011;4049;49.468;11.200;2023-05-10T07:24:27;1.30;;;1.20;;
8007;SDS011;4049;49.468;11.200;2023-05-10T07:26:54;1.73;;;1.30;;
8007;SDS011;4049;49.468;11.200;2023-05-10T07:29:22;1.43;;;1.30;;
8007;SDS011;4049;49.468;11.200;2023-05-10T07:31:49;1.47;;;1.30;;
8007;SDS011;4049;49.468;11.200;2023-05-10T07:34:15;2.00;;;1.30;;
8007;SDS011;4049;49.468;11.200;2023-05-10T07:36:42;2.63;;;1.10;;
8007;SDS011;4049;49.468;11.200;2023-05-10T07:39:09;2.77;;;1.20;;
8007;SDS011;4049;49.468;11.200;2023-05-10T07:41:36;3.03;;;1.30;;
8007;SDS011;4049;49.468;11.200;2023-05-10T07:44:04;2.67;;;1.20;;
8007;SDS011;4049;49.468;11.200;2023-05-10T07:46:32;1.00;;;0.90;;
8007;SDS011;4049;49.468;11.200;2023-05-10T07:48:59;5.03;;;1.20;;
8007;SDS011;4049;49.468;11.200;2023-05-10T07:51:26;3.33;;;1.50;;
8007;SDS011;4049;49.468;11.200;2023-05-10T07:53:53;1.93;;;0.90;;
8007;SDS011;4049;49.468;11.200;2023-05-10T07:56:21;1.30;;;1.20;;
8007;SDS011;4049;49.468;11.200;2023-05-10T07:58:52;1.33;;;1.00;;
8007;SDS011;4049;49.468;11.200;2023-05-10T08:01:19;1.50;;;1.20;;
8007;SDS011;4049;49.468;11.200;2023-05-10T08:03:47;1.20;;;1.10;;
8007;SDS011;4049;49.468;11.200;2023-05-10T08:06:16;1.50;;;1.10;;
8007;SDS011;4049;49.468;11.200;2023-05-10T08:08:43;3.37;;;1.30;;
8007;SDS011;4049;49.468;11.200;2023-05-10T08:11:14;1.70;;;1.10;;
8007;SDS011;4049;49.468;11.200;2023-05-10T08:13:41;1.67;;;1.07;;
8007;SDS011;4049;49.468;11.200;2023-05-10T08:16:07;3.57;;;1.30;;
8007;SDS011;4049;49.468;11.200;2023-05-10T08:18:34;1.33;;;1.13;;
8007;SDS011;4049;49.468;11.200;2023-05-10T08:21:03;2.17;;;1.20;;
8007;SDS011;4049;49.468;11.200;2023-05-10T08:23:29;2.57;;;1.37;;
8007;SDS011;4049;49.468;11.200;2023-05-10T08:25:56;1.40;;;1.30;;
8007;SDS011;4049;49.468;11.200;2023-05-10T08:28:23;2.43;;;1.20;;
8007;SDS011;4049;49.468;11.200;2023-05-10T08:30:50;1.50;;;1.40;;
8007;SDS011;4049;49.468;11.200;2023-05-10T08:33:17;1.53;;;1.33;;
8007;SDS011;4049;49.468;11.200;2023-05-10T08:35:44;1.20;;;1.10;;
8007;SDS011;4049;49.468;11.200;2023-05-10T08:38:12;2.07;;;1.40;;
8007;SDS011;4049;49.468;11.200;2023-05-10T08:40:39;1.47;;;1.30;;
8007;SDS011;4049;49.468;11.200;2023-05-10T08:43:08;3.40;;;1.40;;
8007;SDS011;4049;49.468;11.200;2023-05-10T08:45:37;1.47;;;1.30;;
8007;SDS011;4049;49.468;11.200;2023-05-10T08:48:05;1.50;;;1.40;;
8007;SDS011;4049;49.468;11.200;2023-05-10T08:50:33;2.07;;;1.30;;
8007;SDS011;4049;49.468;11.200;2023-05-10T08:53:03;2.80;;;1.30;;
8007;SDS011;4049;49.468;11.200;2023-05-10T08:55:33;1.57;;;1.47;;
8007;SDS011;4049;49.468;11.200;2023-05-10T08:58:01;1.40;;;1.30;;
8007;SDS011;4049;49.468;11.200;2023-05-10T09:00:28;1.80;;;1.40;;
8007;SDS011;4049;49.468;11.200;2023-05-10T09:02:55;2.03;;;1.57;;
8007;SDS011;4049;49.468;11.200;2023-05-10T09:05:23;1.97;;;1.50;;
8007;SDS011;4049;49.468;11.200;2023-05-10T09:07:50;1.50;;;1.40;;
8007;SDS011;4049;49.468;11.200;2023-05-10T09:10:18;1.47;;;1.33;;
8007;SDS011;4049;49.468;11.200;2023-05-10T09:12:46;2.37;;;1.50;;
8007;SDS011;4049;49.468;11.200;2023-05-10T09:15:14;1.53;;;1.40;;
8007;SDS011;4049;49.468;11.200;2023-05-10T09:17:45;2.73;;;1.43;;
8007;SDS011;4049;49.468;11.200;2023-05-10T09:20:12;1.90;;;1.47;;
8007;SDS011;4049;49.468;11.200;2023-05-10T09:22:39;5.53;;;1.70;;
8007;SDS011;4049;49.468;11.200;2023-05-10T09:25:06;1.60;;;1.50;;
8007;SDS011;4049;49.468;11.200;2023-05-10T09:27:34;1.50;;;1.20;;
8007;SDS011;4049;49.468;11.200;2023-05-10T09:30:03;1.80;;;1.70;;
8007;SDS011;4049;49.468;11.200;2023-05-10T09:32:38;2.63;;;1.93;;
8007;SDS011;4049;49.468;11.200;2023-05-10T09:35:06;1.80;;;1.57;;
8007;SDS011;4049;49.468;11.200;2023-05-10T09:37:34;2.50;;;1.70;;
8007;SDS011;4049;49.468;11.200;2023-05-10T09:40:00;2.87;;;1.70;;
8007;SDS011;4049;49.468;11.200;2023-05-10T09:42:31;3.53;;;1.80;;
8007;SDS011;4049;49.468;11.200;2023-05-10T09:45:00;4.33;;;2.07;;
8007;SDS011;4049;49.468;11.200;2023-05-10T09:47:29;2.87;;;2.50;;
8007;SDS011;4049;49.468;11.200;2023-05-10T09:49:58;3.93;;;2.33;;
8007;SDS011;4049;49.468;11.200;2023-05-10T09:52:28;4.07;;;3.10;;
8007;SDS011;4049;49.468;11.200;2023-05-10T09:54:55;3.43;;;3.13;;
8007;SDS011;4049;49.468;11.200;2023-05-10T09:57:22;4.40;;;3.10;;
8007;SDS011;4049;49.468;11.200;2023-05-10T09:59:50;4.67;;;2.70;;
8007;SDS011;4049;49.468;11.200;2023-05-10T10:02:20;5.07;;;3.00;;
8007;SDS011;4049;49.468;11.200;2023-05-10T10:04:49;3.77;;;2.57;;
8007;SDS011;4049;49.468;11.200;2023-05-10T10:07:17;4.83;;;2.67;;
8007;SDS011;4049;49.468;11.200;2023-05-10T10:09:49;5.27;;;2.70;;
8007;SDS011;4049;49.468;11.200;2023-05-10T10:12:16;5.20;;;2.83;;
8007;SDS011;4049;49.468;11.200;2023-05-10T10:14:44;4.83;;;3.20;;
8007;SDS011;4049;49.468;11.200;2023-05-10T10:17:12;6.83;;;3.00;;
8007;SDS011;4049;49.468;11.200;2023-05-10T10:19:41;5.03;;;2.60;;
8007;SDS011;4049;49.468;11.200;2023-05-10T10:22:08;3.40;;;2.57;;
8007;SDS011;4049;49.468;11.200;2023-05-10T10:24:36;3.80;;;2.87;;
8007;SDS011;4049;49.468;11.200;2023-05-10T10:27:07;3.83;;;3.07;;
8007;SDS011;4049;49.468;11.200;2023-05-10T10:29:44;4.87;;;2.80;;
8007;SDS011;4049;49.468;11.200;2023-05-10T10:32:20;4.90;;;3.10;;
8007;SDS011;4049;49.468;11.200;2023-05-10T10:34:53;3.30;;;2.77;;
8007;SDS011;4049;49.468;11.200;2023-05-10T10:37:21;4.70;;;3.50;;
8007;SDS011;4049;49.468;11.200;2023-05-10T10:39:48;4.37;;;3.30;;
8007;SDS011;4049;49.468;11.200;2023-05-10T10:42:24;8.57;;;3.17;;
8007;SDS011;4049;49.468;11.200;2023-05-10T10:45:13;5.53;;;3.17;;
8007;SDS011;4049;49.468;11.200;2023-05-10T10:47:40;3.73;;;3.03;;
8007;SDS011;4049;49.468;11.200;2023-05-10T10:50:09;6.77;;;2.83;;
8007;SDS011;4049;49.468;11.200;2023-05-10T10:52:37;4.63;;;2.93;;
8007;SDS011;4049;49.468;11.200;2023-05-10T10:55:06;3.80;;;3.03;;
8007;SDS011;4049;49.468;11.200;2023-05-10T10:57:42;3.20;;;2.90;;
8007;SDS011;4049;49.468;11.200;2023-05-10T11:00:21;4.57;;;3.03;;
8007;SDS011;4049;49.468;11.200;2023-05-10T11:02:50;4.37;;;2.87;;
8007;SDS011;4049;49.468;11.200;2023-05-10T11:05:26;4.40;;;2.70;;
8007;SDS011;4049;49.468;11.200;2023-05-10T11:08:10;3.47;;;2.60;;
8007;SDS011;4049;49.468;11.200;2023-05-10T11:10:52;3.07;;;2.67;;
8007;SDS011;4049;49.468;11.200;2023-05-10T11:13:32;3.67;;;2.43;;
8007;SDS011;4049;49.468;11.200;2023-05-10T11:16:09;5.83;;;2.90;;
8007;SDS011;4049;49.468;11.200;2023-05-10T11:18:37;3.10;;;2.40;;
8007;SDS011;4049;49.468;11.200;2023-05-10T11:21:07;2.87;;;2.20;;
8007;SDS011;4049;49.468;11.200;2023-05-10T11:23:47;2.10;;;1.67;;
8007;SDS011;4049;49.468;11.200;2023-05-10T11:26:15;2.93;;;1.87;;
8007;SDS011;4049;49.468;11.200;2023-05-10T11:28:42;3.00;;;2.00;;
8007;SDS011;4049;49.468;11.200;2023-05-10T11:31:09;2.30;;;1.87;;
8007;SDS011;4049;49.468;11.200;2023-05-10T11:33:42;3.80;;;1.50;;
8007;SDS011;4049;49.468;11.200;2023-05-10T11:36:11;1.77;;;1.67;;
8007;SDS011;4049;49.468;11.200;2023-05-10T11:38:40;3.97;;;1.70;;
8007;SDS011;4049;49.468;11.200;2023-05-10T11:41:07;2.00;;;1.70;;
8007;SDS011;4049;49.468;11.200;2023-05-10T11:43:36;2.30;;;1.90;;
8007;SDS011;4049;49.468;11.200;2023-05-10T11:46:04;2.10;;;1.90;;
8007;SDS011;4049;49.468;11.200;2023-05-10T11:48:32;3.37;;;1.70;;
8007;SDS011;4049;49.468;11.200;2023-05-10T11:51:00;3.13;;;2.10;;
8007;SDS011;4049;49.468;11.200;2023-05-10T11:53:28;2.10;;;1.70;;
8007;SDS011;4049;49.468;11.200;2023-05-10T11:56:02;2.53;;;1.93;;
8007;SDS011;4049;49.468;11.200;2023-05-10T11:58:29;2.70;;;2.07;;
8007;SDS011;4049;49.468;11.200;2023-05-10T12:00:57;4.47;;;2.60;;
8007;SDS011;4049;49.468;11.200;2023-05-10T12:03:24;2.63;;;2.30;;
8007;SDS011;4049;49.468;11.200;2023-05-10T12:05:51;4.80;;;2.23;;
8007;SDS011;4049;49.468;11.200;2023-05-10T12:08:20;2.00;;;1.80;;
8007;SDS011;4049;49.468;11.200;2023-05-10T12:10:49;1.87;;;1.60;;
8007;SDS011;4049;49.468;11.200;2023-05-10T12:13:16;2.67;;;2.00;;
8007;SDS011;4049;49.468;11.200;2023-05-10T12:15:43;1.60;;;1.50;;
8007;SDS011;4049;49.468;11.200;2023-05-10T12:18:10;2.90;;;1.50;;
8007;SDS011;4049;49.468;11.200;2023-05-10T12:20:38;1.70;;;1.60;;
8007;SDS011;4049;49.468;11.200;2023-05-10T12:23:07;2.93;;;1.60;;
8007;SDS011;4049;49.468;11.200;2023-05-10T12:25:36;2.43;;;1.50;;
8007;SDS011;4049;49.468;11.200;2023-05-10T12:28:05;1.70;;;1.60;;
8007;SDS011;4049;49.468;11.200;2023-05-10T12:30:34;2.30;;;1.70;;
8007;SDS011;4049;49.468;11.200;2023-05-10T12:33:02;4.40;;;1.70;;
8007;SDS011;4049;49.468;11.200;2023-05-10T12:35:43;2.30;;;1.80;;
8007;SDS011;4049;49.468;11.200;2023-05-10T12:38:24;2.37;;;1.87;;
8007;SDS011;4049;49.468;11.200;2023-05-10T12:40:53;4.77;;;1.90;;
8007;SDS011;4049;49.468;11.200;2023-05-10T12:43:22;2.00;;;1.70;;
8007;SDS011;4049;49.468;11.200;2023-05-10T12:45:49;2.20;;;2.00;;
8007;SDS011;4049;49.468;11.200;2023-05-10T12:48:15;2.03;;;1.83;;
8007;SDS011;4049;49.468;11.200;2023-05-10T12:50:42;3.87;;;2.20;;
8007;SDS011;4049;49.468;11.200;2023-05-10T12:53:09;2.10;;;1.70;;
8007;SDS011;4049;49.468;11.200;2023-05-10T12:55:36;2.23;;;1.80;;
8007;SDS011;4049;49.468;11.200;2023-05-10T12:58:03;1.80;;;1.70;;
8007;SDS011;4049;49.468;11.200;2023-05-10T13:00:31;2.13;;;1.90;;
8007;SDS011;4049;49.468;11.200;2023-05-10T13:02:58;2.40;;;1.80;;
8007;SDS011;4049;49.468;11.200;2023-05-10T13:05:24;3.47;;;2.10;;
8007;SDS011;4049;49.468;11.200;2023-05-10T13:07:51;2.90;;;2.03;;
8007;SDS011;4049;49.468;11.200;2023-05-10T13:10:18;2.10;;;1.90;;
8007;SDS011;4049;49.468;11.200;2023-05-10T13:12:45;2.53;;;2.10;;
8007;SDS011;4049;49.468;11.200;2023-05-10T13:15:12;2.80;;;2.17;;
8007;SDS011;4049;49.468;11.200;2023-05-10T13:17:40;3.70;;;2.00;;
8007;SDS011;4049;49.468;11.200;2023-05-10T13:20:07;3.60;;;1.90;;
8007;SDS011;4049;49.468;11.200;2023-05-10T13:22:35;3.57;;;2.00;;
8007;SDS011;4049;49.468;11.200;2023-05-10T13:25:02;1.60;;;1.50;;
8007;SDS011;4049;49.468;11.200;2023-05-10T13:27:29;2.57;;;1.53;;
8007;SDS011;4049;49.468;11.200;2023-05-10T13:29:56;1.90;;;1.50;;
8007;SDS011;4049;49.468;11.200;2023-05-10T13:32:24;1.47;;;1.37;;
8007;SDS011;4049;49.468;11.200;2023-05-10T13:34:52;1.73;;;1.60;;
8007;SDS011;4049;49.468;11.200;2023-05-10T13:37:19;3.13;;;1.63;;
8007;SDS011;4049;49.468;11.200;2023-05-10T13:39:46;1.70;;;1.40;;
8007;SDS011;4049;49.468;11.200;2023-05-10T13:42:13;2.80;;;1.80;;
8007;SDS011;4049;49.468;11.200;2023-05-10T13:44:40;2.33;;;1.67;;
8007;SDS011;4049;49.468;11.200;2023-05-10T13:47:06;2.80;;;1.30;;
8007;SDS011;4049;49.468;11.200;2023-05-10T13:49:35;1.20;;;1.10;;
8007;SDS011;4049;49.468;11.200;2023-05-10T13:52:04;1.00;;;1.00;;
8007;SDS011;4049;49.468;11.200;2023-05-10T13:54:32;1.73;;;1.10;;
8007;SDS011;4049;49.468;11.200;2023-05-10T13:56:59;1.30;;;1.20;;
8007;SDS011;4049;49.468;11.200;2023-05-10T13:59:25;1.50;;;1.40;;
8007;SDS011;4049;49.468;11.200;2023-05-10T14:01:52;1.43;;;1.10;;
8007;SDS011;4049;49.468;11.200;2023-05-10T14:04:19;1.20;;;1.10;;
8007;SDS011;4049;49.468;11.200;2023-05-10T14:06:46;1.97;;;1.33;;
8007;SDS011;4049;49.468;11.200;2023-05-10T14:09:14;1.27;;;1.17;;
8007;SDS011;4049;49.468;11.200;2023-05-10T14:11:42;1.57;;;1.30;;
8007;SDS011;4049;49.468;11.200;2023-05-10T14:14:10;1.70;;;1.40;;
8007;SDS011;4049;49.468;11.200;2023-05-10T14:16:37;2.73;;;1.30;;
8007;SDS011;4049;49.468;11.200;2023-05-10T14:19:04;1.60;;;1.37;;
8007;SDS011;4049;49.468;11.200;2023-05-10T14:21:31;2.00;;;1.33;;
8007;SDS011;4049;49.468;11.200;2023-05-10T14:23:59;1.40;;;1.30;;
8007;SDS011;4049;49.468;11.200;2023-05-10T14:26:27;1.47;;;1.37;;
8007;SDS011;4049;49.468;11.200;2023-05-10T14:28:54;1.70;;;1.60;;
8007;SDS011;4049;49.468;11.200;2023-05-10T14:31:21;1.40;;;1.30;;
8007;SDS011;4049;49.468;11.200;2023-05-10T14:33:49;1.50;;;1.40;;
8007;SDS011;4049;49.468;11.200;2023-05-10T14:36:16;1.80;;;1.40;;
8007;SDS011;4049;49.468;11.200;2023-05-10T14:38:43;1.77;;;1.67;;
8007;SDS011;4049;49.468;11.200;2023-05-10T14:41:10;1.53;;;1.43;;
8007;SDS011;4049;49.468;11.200;2023-05-10T14:43:40;1.97;;;1.70;;
8007;SDS011;4049;49.468;11.200;2023-05-10T14:46:07;1.50;;;1.40;;
8007;SDS011;4049;49.468;11.200;2023-05-10T14:48:34;2.60;;;1.80;;
8007;SDS011;4049;49.468;11.200;2023-05-10T14:51:01;1.70;;;1.60;;
8007;SDS011;4049;49.468;11.200;2023-05-10T14:53:28;3.27;;;1.57;;
8007;SDS011;4049;49.468;11.200;2023-05-10T14:55:55;3.70;;;1.60;;
8007;SDS011;4049;49.468;11.200;2023-05-10T14:58:22;2.20;;;1.63;;
8007;SDS011;4049;49.468;11.200;2023-05-10T15:00:51;2.43;;;1.60;;
8007;SDS011;4049;49.468;11.200;2023-05-10T15:03:18;2.03;;;1.57;;
8007;SDS011;4049;49.468;11.200;2023-05-10T15:05:44;1.40;;;1.30;;
8007;SDS011;4049;49.468;11.200;2023-05-10T15:08:12;1.40;;;1.30;;
8007;SDS011;4049;49.468;11.200;2023-05-10T15:10:39;2.10;;;1.60;;